sensor_id;sensor_type;location;lat;lon;timestamp;temperature;humidity
22974;DHT22;11653;50.848;4.584;2023-03-12T00:01:33;6.20;99.90
22974;DHT22;11653;50.848;4.584;2023-03-12T00:04:03;6.30;99.90
22974;DHT22;11653;50.848;4.584;2023-03-12T00:06:29;6.30;99.90
22974;DHT22;11653;50.848;4.584;2023-03-12T00:08:55;6.30;99.90
22974;DHT22;11653;50.848;4.584;2023-03-12T00:11:20;6.40;99.90
22974;DHT22;11653;50.848;4.584;2023-03-12T00:13:54;6.20;99.90
22974;DHT22;11653;50.848;4.584;2023-03-12T00:16:20;6.40;99.90
22974;DHT22;11653;50.848;4.584;2023-03-12T00:18:48;6.40;99.90
22974;DHT22;11653;50.848;4.584;2023-03-12T00:21:14;6.50;99.90
22974;DHT22;11653;50.848;4.584;2023-03-12T00:23:40;6.60;99.90
22974;DHT22;11653;50.848;4.584;2023-03-12T00:26:10;6.60;99.90
22974;DHT22;11653;50.848;4.584;2023-03-12T00:28:37;6.60;99.90
22974;DHT22;11653;50.848;4.584;2023-03-12T00:31:18;6.60;99.90
22974;DHT22;11653;50.848;4.584;2023-03-12T00:33:45;6.50;99.90
22974;DHT22;11653;50.848;4.584;2023-03-12T00:36:11;6.50;99.90
22974;DHT22;11653;50.848;4.584;2023-03-12T00:38:37;6.40;99.90
22974;DHT22;11653;50.848;4.584;2023-03-12T00:41:03;6.40;99.90
22974;DHT22;11653;50.848;4.584;2023-03-12T00:43:29;6.50;99.90
22974;DHT22;11653;50.848;4.584;2023-03-12T00:45:54;6.60;99.90
22974;DHT22;11653;50.848;4.584;2023-03-12T00:48:20;6.40;99.90
22974;DHT22;11653;50.848;4.584;2023-03-12T00:50:45;6.40;99.90
22974;DHT22;11653;50.848;4.584;2023-03-12T00:53:11;6.50;99.90
22974;DHT22;11653;50.848;4.584;2023-03-12T00:55:37;6.50;99.90
22974;DHT22;11653;50.848;4.584;2023-03-12T00:58:02;6.60;99.90
22974;DHT22;11653;50.848;4.584;2023-03-12T01:00:28;6.60;99.90
22974;DHT22;11653;50.848;4.584;2023-03-12T01:02:54;6.60;99.90
22974;DHT22;11653;50.848;4.584;2023-03-12T01:05:20;6.60;99.90
22974;DHT22;11653;50.848;4.584;2023-03-12T01:07:46;6.50;99.90
22974;DHT22;11653;50.848;4.584;2023-03-12T01:10:14;6.50;99.90
22974;DHT22;11653;50.848;4.584;2023-03-12T01:12:41;6.50;99.90
22974;DHT22;11653;50.848;4.584;2023-03-12T01:15:07;6.40;99.90
22974;DHT22;11653;50.848;4.584;2023-03-12T01:17:33;6.50;99.90
22974;DHT22;11653;50.848;4.584;2023-03-12T01:19:59;6.50;99.90
22974;DHT22;11653;50.848;4.584;2023-03-12T01:22:24;6.50;99.90
22974;DHT22;11653;50.848;4.584;2023-03-12T01:24:50;6.40;99.90
22974;DHT22;11653;50.848;4.584;2023-03-12T01:27:15;6.40;99.90
22974;DHT22;11653;50.848;4.584;2023-03-12T01:29:41;6.40;99.90
22974;DHT22;11653;50.848;4.584;2023-03-12T01:32:07;6.50;99.90
22974;DHT22;11653;50.848;4.584;2023-03-12T01:34:32;6.40;99.90
22974;DHT22;11653;50.848;4.584;2023-03-12T01:37:00;6.30;99.90
22974;DHT22;11653;50.848;4.584;2023-03-12T01:39:25;6.20;99.90
22974;DHT22;11653;50.848;4.584;2023-03-12T01:41:51;6.30;99.90
22974;DHT22;11653;50.848;4.584;2023-03-12T01:44:17;6.20;99.90
22974;DHT22;11653;50.848;4.584;2023-03-12T01:46:43;6.10;99.90
22974;DHT22;11653;50.848;4.584;2023-03-12T01:49:31;6.10;99.90
22974;DHT22;11653;50.848;4.584;2023-03-12T01:52:02;6.10;99.90
22974;DHT22;11653;50.848;4.584;2023-03-12T01:54:34;6.00;99.90
22974;DHT22;11653;50.848;4.584;2023-03-12T01:57:05;5.90;99.90
22974;DHT22;11653;50.848;4.584;2023-03-12T01:59:53;5.80;99.90
22974;DHT22;11653;50.848;4.584;2023-03-12T02:02:21;6.00;99.90
22974;DHT22;11653;50.848;4.584;2023-03-12T02:04:59;6.10;99.90
22974;DHT22;11653;50.848;4.584;2023-03-12T02:07:27;6.10;99.90
22974;DHT22;11653;50.848;4.584;2023-03-12T02:09:53;6.10;99.90
22974;DHT22;11653;50.848;4.584;2023-03-12T02:12:18;5.90;99.90
22974;DHT22;11653;50.848;4.584;2023-03-12T02:14:44;5.80;99.90
22974;DHT22;11653;50.848;4.584;2023-03-12T02:17:10;5.80;99.90
22974;DHT22;11653;50.848;4.584;2023-03-12T02:22:37;5.80;99.90
22974;DHT22;11653;50.848;4.584;2023-03-12T02:25:27;5.80;99.90
22974;DHT22;11653;50.848;4.584;2023-03-12T02:27:57;5.70;99.90
22974;DHT22;11653;50.848;4.584;2023-03-12T02:30:25;5.80;99.90
22974;DHT22;11653;50.848;4.584;2023-03-12T02:32:52;5.80;99.90
22974;DHT22;11653;50.848;4.584;2023-03-12T02:35:18;5.70;99.90
22974;DHT22;11653;50.848;4.584;2023-03-12T02:37:54;5.50;99.90
22974;DHT22;11653;50.848;4.584;2023-03-12T02:40:25;5.40;99.90
22974;DHT22;11653;50.848;4.584;2023-03-12T02:42:53;5.50;99.90
22974;DHT22;11653;50.848;4.584;2023-03-12T02:45:19;5.40;99.90
22974;DHT22;11653;50.848;4.584;2023-03-12T02:47:45;5.20;99.90
22974;DHT22;11653;50.848;4.584;2023-03-12T02:50:11;5.20;99.90
22974;DHT22;11653;50.848;4.584;2023-03-12T02:52:37;5.30;99.90
22974;DHT22;11653;50.848;4.584;2023-03-12T02:55:04;5.40;99.90
22974;DHT22;11653;50.848;4.584;2023-03-12T02:57:30;5.50;99.90
22974;DHT22;11653;50.848;4.584;2023-03-12T02:59:56;5.60;99.90
22974;DHT22;11653;50.848;4.584;2023-03-12T03:02:21;5.50;99.90
22974;DHT22;11653;50.848;4.584;2023-03-12T03:04:47;5.20;99.90
22974;DHT22;11653;50.848;4.584;2023-03-12T03:07:12;5.20;99.90
22974;DHT22;11653;50.848;4.584;2023-03-12T03:09:39;5.30;99.90
22974;DHT22;11653;50.848;4.584;2023-03-12T03:12:05;5.40;99.90
22974;DHT22;11653;50.848;4.584;2023-03-12T03:14:31;5.50;99.90
22974;DHT22;11653;50.848;4.584;2023-03-12T03:16:57;5.60;99.90
22974;DHT22;11653;50.848;4.584;2023-03-12T03:19:23;5.70;99.90
22974;DHT22;11653;50.848;4.584;2023-03-12T03:21:48;5.60;99.90
22974;DHT22;11653;50.848;4.584;2023-03-12T03:24:14;5.70;99.90
22974;DHT22;11653;50.848;4.584;2023-03-12T03:26:40;5.80;99.90
22974;DHT22;11653;50.848;4.584;2023-03-12T03:29:05;5.90;99.90
22974;DHT22;11653;50.848;4.584;2023-03-12T03:31:31;5.90;99.90
22974;DHT22;11653;50.848;4.584;2023-03-12T03:33:57;5.80;99.90
22974;DHT22;11653;50.848;4.584;2023-03-12T03:36:22;5.90;99.90
22974;DHT22;11653;50.848;4.584;2023-03-12T03:38:48;5.90;99.90
22974;DHT22;11653;50.848;4.584;2023-03-12T03:41:18;5.90;99.90
22974;DHT22;11653;50.848;4.584;2023-03-12T03:43:45;6.00;99.90
22974;DHT22;11653;50.848;4.584;2023-03-12T03:46:12;6.10;99.90
22974;DHT22;11653;50.848;4.584;2023-03-12T03:48:38;6.10;99.90
22974;DHT22;11653;50.848;4.584;2023-03-12T03:51:05;6.00;99.90
22974;DHT22;11653;50.848;4.584;2023-03-12T03:53:32;6.00;99.90
22974;DHT22;11653;50.848;4.584;2023-03-12T03:56:04;5.90;99.90
22974;DHT22;11653;50.848;4.584;2023-03-12T03:58:30;5.90;99.90
22974;DHT22;11653;50.848;4.584;2023-03-12T04:00:56;6.00;99.90
22974;DHT22;11653;50.848;4.584;2023-03-12T04:03:21;6.00;99.90
22974;DHT22;11653;50.848;4.584;2023-03-12T04:05:53;5.90;99.90
22974;DHT22;11653;50.848;4.584;2023-03-12T04:08:19;5.90;99.90
22974;DHT22;11653;50.848;4.584;2023-03-12T04:10:44;5.90;99.90
22974;DHT22;11653;50.848;4.584;2023-03-12T04:13:10;5.80;99.90
22974;DHT22;11653;50.848;4.584;2023-03-12T04:15:36;5.80;99.90
22974;DHT22;11653;50.848;4.584;2023-03-12T04:18:01;5.90;99.90
22974;DHT22;11653;50.848;4.584;2023-03-12T04:20:27;6.00;99.90
22974;DHT22;11653;50.848;4.584;2023-03-12T04:22:53;6.10;99.90
22974;DHT22;11653;50.848;4.584;2023-03-12T04:25:18;6.10;99.90
22974;DHT22;11653;50.848;4.584;2023-03-12T04:27:44;6.10;99.90
22974;DHT22;11653;50.848;4.584;2023-03-12T04:30:10;6.20;99.90
22974;DHT22;11653;50.848;4.584;2023-03-12T04:32:36;6.20;99.90
22974;DHT22;11653;50.848;4.584;2023-03-12T04:35:02;6.20;99.90
22974;DHT22;11653;50.848;4.584;2023-03-12T04:37:30;6.20;99.90
22974;DHT22;11653;50.848;4.584;2023-03-12T04:39:56;6.30;99.90
22974;DHT22;11653;50.848;4.584;2023-03-12T04:42:21;6.30;99.90
22974;DHT22;11653;50.848;4.584;2023-03-12T04:44:49;6.40;99.90
22974;DHT22;11653;50.848;4.584;2023-03-12T04:47:16;6.30;99.90
22974;DHT22;11653;50.848;4.584;2023-03-12T04:49:42;6.50;99.90
22974;DHT22;11653;50.848;4.584;2023-03-12T04:52:08;6.60;99.90
22974;DHT22;11653;50.848;4.584;2023-03-12T04:54:34;6.70;99.90
22974;DHT22;11653;50.848;4.584;2023-03-12T04:56:59;6.70;99.90
22974;DHT22;11653;50.848;4.584;2023-03-12T04:59:25;6.80;99.90
22974;DHT22;11653;50.848;4.584;2023-03-12T05:01:51;6.70;99.90
22974;DHT22;11653;50.848;4.584;2023-03-12T05:04:16;6.70;99.90
22974;DHT22;11653;50.848;4.584;2023-03-12T05:06:42;6.70;99.90
22974;DHT22;11653;50.848;4.584;2023-03-12T05:09:07;6.70;99.90
22974;DHT22;11653;50.848;4.584;2023-03-12T05:11:33;6.80;99.90
22974;DHT22;11653;50.848;4.584;2023-03-12T05:13:59;6.90;99.90
22974;DHT22;11653;50.848;4.584;2023-03-12T05:16:24;6.90;99.90
22974;DHT22;11653;50.848;4.584;2023-03-12T05:18:50;6.80;99.90
22974;DHT22;11653;50.848;4.584;2023-03-12T05:21:18;6.90;99.90
22974;DHT22;11653;50.848;4.584;2023-03-12T05:23:45;6.80;99.90
22974;DHT22;11653;50.848;4.584;2023-03-12T05:26:31;6.80;99.90
22974;DHT22;11653;50.848;4.584;2023-03-12T05:28:58;6.90;99.90
22974;DHT22;11653;50.848;4.584;2023-03-12T05:31:24;6.90;99.90
22974;DHT22;11653;50.848;4.584;2023-03-12T05:33:51;6.90;99.90
22974;DHT22;11653;50.848;4.584;2023-03-12T05:36:17;6.90;99.90
22974;DHT22;11653;50.848;4.584;2023-03-12T05:38:43;6.90;99.90
22974;DHT22;11653;50.848;4.584;2023-03-12T05:41:24;6.90;99.90
22974;DHT22;11653;50.848;4.584;2023-03-12T05:43:52;6.90;99.90
22974;DHT22;11653;50.848;4.584;2023-03-12T05:46:17;7.00;99.90
22974;DHT22;11653;50.848;4.584;2023-03-12T05:48:43;7.00;99.90
22974;DHT22;11653;50.848;4.584;2023-03-12T05:51:09;6.90;99.90
22974;DHT22;11653;50.848;4.584;2023-03-12T05:53:35;7.00;99.90
22974;DHT22;11653;50.848;4.584;2023-03-12T05:56:02;7.10;99.90
22974;DHT22;11653;50.848;4.584;2023-03-12T05:58:28;7.10;99.90
22974;DHT22;11653;50.848;4.584;2023-03-12T06:00:53;7.10;99.90
22974;DHT22;11653;50.848;4.584;2023-03-12T06:03:19;7.10;99.90
22974;DHT22;11653;50.848;4.584;2023-03-12T06:05:45;7.20;99.90
22974;DHT22;11653;50.848;4.584;2023-03-12T06:08:12;7.20;99.90
22974;DHT22;11653;50.848;4.584;2023-03-12T06:10:38;7.20;99.90
22974;DHT22;11653;50.848;4.584;2023-03-12T06:13:04;7.20;99.90
22974;DHT22;11653;50.848;4.584;2023-03-12T06:15:30;7.30;99.90
22974;DHT22;11653;50.848;4.584;2023-03-12T06:17:56;7.40;99.90
22974;DHT22;11653;50.848;4.584;2023-03-12T06:20:22;7.30;99.90
22974;DHT22;11653;50.848;4.584;2023-03-12T06:22:47;7.40;99.90
22974;DHT22;11653;50.848;4.584;2023-03-12T06:25:13;7.40;99.90
22974;DHT22;11653;50.848;4.584;2023-03-12T06:27:39;7.50;99.90
22974;DHT22;11653;50.848;4.584;2023-03-12T06:30:06;7.60;99.90
22974;DHT22;11653;50.848;4.584;2023-03-12T06:32:32;7.60;99.90
22974;DHT22;11653;50.848;4.584;2023-03-12T06:34:58;7.70;99.90
22974;DHT22;11653;50.848;4.584;2023-03-12T06:37:25;7.60;99.90
22974;DHT22;11653;50.848;4.584;2023-03-12T06:39:51;7.70;99.90
22974;DHT22;11653;50.848;4.584;2023-03-12T06:42:17;7.80;99.90
22974;DHT22;11653;50.848;4.584;2023-03-12T06:44:45;7.90;99.90
22974;DHT22;11653;50.848;4.584;2023-03-12T06:47:10;7.90;99.90
22974;DHT22;11653;50.848;4.584;2023-03-12T06:49:36;8.00;99.90
22974;DHT22;11653;50.848;4.584;2023-03-12T06:52:03;8.00;99.90
22974;DHT22;11653;50.848;4.584;2023-03-12T06:54:29;8.10;99.90
22974;DHT22;11653;50.848;4.584;2023-03-12T06:56:55;8.20;99.90
22974;DHT22;11653;50.848;4.584;2023-03-12T06:59:20;8.10;99.90
22974;DHT22;11653;50.848;4.584;2023-03-12T07:01:47;8.30;99.90
22974;DHT22;11653;50.848;4.584;2023-03-12T07:04:13;8.20;99.90
22974;DHT22;11653;50.848;4.584;2023-03-12T07:06:39;8.40;99.90
22974;DHT22;11653;50.848;4.584;2023-03-12T07:09:04;8.50;99.90
22974;DHT22;11653;50.848;4.584;2023-03-12T07:11:30;8.50;99.90
22974;DHT22;11653;50.848;4.584;2023-03-12T07:13:56;8.50;99.90
22974;DHT22;11653;50.848;4.584;2023-03-12T07:16:22;8.60;99.90
22974;DHT22;11653;50.848;4.584;2023-03-12T07:18:48;8.50;99.90
22974;DHT22;11653;50.848;4.584;2023-03-12T07:21:14;8.60;99.90
22974;DHT22;11653;50.848;4.584;2023-03-12T07:23:47;8.50;99.90
22974;DHT22;11653;50.848;4.584;2023-03-12T07:26:13;8.60;99.90
22974;DHT22;11653;50.848;4.584;2023-03-12T07:28:39;8.70;99.90
22974;DHT22;11653;50.848;4.584;2023-03-12T07:31:05;8.80;99.90
22974;DHT22;11653;50.848;4.584;2023-03-12T07:33:31;8.90;99.90
22974;DHT22;11653;50.848;4.584;2023-03-12T07:35:57;9.10;99.90
22974;DHT22;11653;50.848;4.584;2023-03-12T07:38:22;9.20;99.90
22974;DHT22;11653;50.848;4.584;2023-03-12T07:40:53;9.10;99.90
22974;DHT22;11653;50.848;4.584;2023-03-12T07:43:19;9.20;99.90
22974;DHT22;11653;50.848;4.584;2023-03-12T07:45:45;9.20;99.90
22974;DHT22;11653;50.848;4.584;2023-03-12T07:48:10;9.10;99.90
22974;DHT22;11653;50.848;4.584;2023-03-12T07:50:37;9.20;99.90
22974;DHT22;11653;50.848;4.584;2023-03-12T07:53:03;9.20;99.90
22974;DHT22;11653;50.848;4.584;2023-03-12T07:55:30;9.30;99.90
22974;DHT22;11653;50.848;4.584;2023-03-12T07:57:56;9.30;99.90
22974;DHT22;11653;50.848;4.584;2023-03-12T08:00:24;9.30;99.90
22974;DHT22;11653;50.848;4.584;2023-03-12T08:02:50;9.30;99.90
22974;DHT22;11653;50.848;4.584;2023-03-12T08:05:16;9.30;99.90
22974;DHT22;11653;50.848;4.584;2023-03-12T08:07:42;9.30;99.90
22974;DHT22;11653;50.848;4.584;2023-03-12T08:10:09;9.40;99.90
22974;DHT22;11653;50.848;4.584;2023-03-12T08:12:35;9.40;99.90
22974;DHT22;11653;50.848;4.584;2023-03-12T08:15:05;9.50;99.90
22974;DHT22;11653;50.848;4.584;2023-03-12T08:17:31;9.50;99.90
22974;DHT22;11653;50.848;4.584;2023-03-12T08:19:56;9.50;99.90
22974;DHT22;11653;50.848;4.584;2023-03-12T08:22:22;9.50;99.90
22974;DHT22;11653;50.848;4.584;2023-03-12T08:24:48;9.50;99.90
22974;DHT22;11653;50.848;4.584;2023-03-12T08:27:13;9.60;99.90
22974;DHT22;11653;50.848;4.584;2023-03-12T08:29:40;9.60;99.90
22974;DHT22;11653;50.848;4.584;2023-03-12T08:32:06;9.60;99.90
22974;DHT22;11653;50.848;4.584;2023-03-12T08:34:33;9.60;99.90
22974;DHT22;11653;50.848;4.584;2023-03-12T08:36:59;9.60;99.90
22974;DHT22;11653;50.848;4.584;2023-03-12T08:39:24;9.60;99.90
22974;DHT22;11653;50.848;4.584;2023-03-12T08:41:50;9.70;99.90
22974;DHT22;11653;50.848;4.584;2023-03-12T08:44:21;9.80;99.90
22974;DHT22;11653;50.848;4.584;2023-03-12T08:46:46;9.80;99.90
22974;DHT22;11653;50.848;4.584;2023-03-12T08:49:12;9.90;99.90
22974;DHT22;11653;50.848;4.584;2023-03-12T08:51:38;9.90;99.90
22974;DHT22;11653;50.848;4.584;2023-03-12T08:54:05;9.90;99.90
22974;DHT22;11653;50.848;4.584;2023-03-12T08:56:31;10.00;99.90
22974;DHT22;11653;50.848;4.584;2023-03-12T08:58:57;10.10;99.90
22974;DHT22;11653;50.848;4.584;2023-03-12T09:01:23;10.20;99.90
22974;DHT22;11653;50.848;4.584;2023-03-12T09:03:49;10.40;99.90
22974;DHT22;11653;50.848;4.584;2023-03-12T09:06:17;10.50;99.90
22974;DHT22;11653;50.848;4.584;2023-03-12T09:08:44;10.80;99.90
22974;DHT22;11653;50.848;4.584;2023-03-12T09:11:12;10.90;99.90
22974;DHT22;11653;50.848;4.584;2023-03-12T09:13:38;10.90;99.90
22974;DHT22;11653;50.848;4.584;2023-03-12T09:16:05;11.00;99.90
22974;DHT22;11653;50.848;4.584;2023-03-12T09:18:31;11.20;99.90
22974;DHT22;11653;50.848;4.584;2023-03-12T09:20:57;11.50;99.90
22974;DHT22;11653;50.848;4.584;2023-03-12T09:23:23;11.60;99.90
22974;DHT22;11653;50.848;4.584;2023-03-12T09:25:49;11.70;99.90
22974;DHT22;11653;50.848;4.584;2023-03-12T09:28:15;11.70;99.90
22974;DHT22;11653;50.848;4.584;2023-03-12T09:30:41;11.70;99.90
22974;DHT22;11653;50.848;4.584;2023-03-12T09:33:07;11.80;99.90
22974;DHT22;11653;50.848;4.584;2023-03-12T09:35:33;11.80;99.90
22974;DHT22;11653;50.848;4.584;2023-03-12T09:37:59;11.90;99.90
22974;DHT22;11653;50.848;4.584;2023-03-12T09:40:28;12.00;99.90
22974;DHT22;11653;50.848;4.584;2023-03-12T09:43:03;12.10;99.90
22974;DHT22;11653;50.848;4.584;2023-03-12T09:45:40;12.40;99.90
22974;DHT22;11653;50.848;4.584;2023-03-12T09:48:33;12.80;99.90
22974;DHT22;11653;50.848;4.584;2023-03-12T09:51:33;13.20;99.90
22974;DHT22;11653;50.848;4.584;2023-03-12T09:53:57;13.90;99.90
22974;DHT22;11653;50.848;4.584;2023-03-12T09:56:25;14.50;99.90
22974;DHT22;11653;50.848;4.584;2023-03-12T09:58:51;15.00;99.90
22974;DHT22;11653;50.848;4.584;2023-03-12T10:01:36;15.50;99.90
22974;DHT22;11653;50.848;4.584;2023-03-12T10:04:06;15.80;99.90
22974;DHT22;11653;50.848;4.584;2023-03-12T10:09:36;14.90;99.90
22974;DHT22;11653;50.848;4.584;2023-03-12T10:17:43;14.10;99.90
22974;DHT22;11653;50.848;4.584;2023-03-12T10:20:40;14.20;99.90
22974;DHT22;11653;50.848;4.584;2023-03-12T10:26:13;13.90;99.90
22974;DHT22;11653;50.848;4.584;2023-03-12T10:28:54;13.50;99.90
22974;DHT22;11653;50.848;4.584;2023-03-12T10:31:26;13.20;99.90
22974;DHT22;11653;50.848;4.584;2023-03-12T10:34:01;13.00;99.90
22974;DHT22;11653;50.848;4.584;2023-03-12T10:36:39;13.00;99.90
22974;DHT22;11653;50.848;4.584;2023-03-12T10:39:14;13.00;99.90
22974;DHT22;11653;50.848;4.584;2023-03-12T10:41:42;13.00;99.90
22974;DHT22;11653;50.848;4.584;2023-03-12T10:44:16;13.10;99.90
22974;DHT22;11653;50.848;4.584;2023-03-12T10:49:25;13.00;99.90
22974;DHT22;11653;50.848;4.584;2023-03-12T10:54:29;13.10;99.90
22974;DHT22;11653;50.848;4.584;2023-03-12T10:56:55;13.30;99.90
22974;DHT22;11653;50.848;4.584;2023-03-12T10:59:24;13.50;99.90
22974;DHT22;11653;50.848;4.584;2023-03-12T11:01:51;13.50;99.90
22974;DHT22;11653;50.848;4.584;2023-03-12T11:04:23;13.60;99.90
22974;DHT22;11653;50.848;4.584;2023-03-12T11:09:37;13.70;99.90
22974;DHT22;11653;50.848;4.584;2023-03-12T11:12:25;13.80;99.90
22974;DHT22;11653;50.848;4.584;2023-03-12T11:14:52;13.90;99.90
22974;DHT22;11653;50.848;4.584;2023-03-12T11:17:25;13.90;99.90
22974;DHT22;11653;50.848;4.584;2023-03-12T11:19:52;13.80;99.90
22974;DHT22;11653;50.848;4.584;2023-03-12T11:22:30;13.80;99.90
22974;DHT22;11653;50.848;4.584;2023-03-12T11:25:05;13.80;99.90
22974;DHT22;11653;50.848;4.584;2023-03-12T11:27:43;13.80;99.90
22974;DHT22;11653;50.848;4.584;2023-03-12T11:30:14;14.00;99.90
22974;DHT22;11653;50.848;4.584;2023-03-12T11:32:43;13.90;99.90
22974;DHT22;11653;50.848;4.584;2023-03-12T11:35:12;13.90;99.90
22974;DHT22;11653;50.848;4.584;2023-03-12T11:49:13;13.30;99.90
22974;DHT22;11653;50.848;4.584;2023-03-12T11:51:47;13.40;99.90
22974;DHT22;11653;50.848;4.584;2023-03-12T12:02:40;15.10;99.90
22974;DHT22;11653;50.848;4.584;2023-03-12T12:05:43;14.80;99.90
22974;DHT22;11653;50.848;4.584;2023-03-12T12:11:21;14.20;99.90
22974;DHT22;11653;50.848;4.584;2023-03-12T12:16:46;13.60;99.90
22974;DHT22;11653;50.848;4.584;2023-03-12T12:27:47;13.30;99.90
22974;DHT22;11653;50.848;4.584;2023-03-12T12:35:44;13.60;99.90
22974;DHT22;11653;50.848;4.584;2023-03-12T12:38:33;13.90;99.90
22974;DHT22;11653;50.848;4.584;2023-03-12T12:44:19;14.10;99.90
22974;DHT22;11653;50.848;4.584;2023-03-12T12:46:55;14.00;99.90
22974;DHT22;11653;50.848;4.584;2023-03-12T12:49:25;13.70;99.90
22974;DHT22;11653;50.848;4.584;2023-03-12T12:52:05;13.50;99.90
22974;DHT22;11653;50.848;4.584;2023-03-12T13:00:24;13.30;99.90
22974;DHT22;11653;50.848;4.584;2023-03-12T13:02:55;13.40;99.90
22974;DHT22;11653;50.848;4.584;2023-03-12T13:05:57;13.50;99.90
22974;DHT22;11653;50.848;4.584;2023-03-12T13:13:42;13.50;99.90
22974;DHT22;11653;50.848;4.584;2023-03-12T13:16:34;13.50;99.90
22974;DHT22;11653;50.848;4.584;2023-03-12T13:22:16;13.40;99.90
22974;DHT22;11653;50.848;4.584;2023-03-12T13:25:20;13.50;99.90
22974;DHT22;11653;50.848;4.584;2023-03-12T13:27:58;13.60;99.90
22974;DHT22;11653;50.848;4.584;2023-03-12T13:30:45;13.70;99.90
22974;DHT22;11653;50.848;4.584;2023-03-12T13:33:15;13.80;99.90
22974;DHT22;11653;50.848;4.584;2023-03-12T13:35:48;13.70;99.90
22974;DHT22;11653;50.848;4.584;2023-03-12T13:41:39;13.50;99.90
22974;DHT22;11653;50.848;4.584;2023-03-12T13:47:21;13.20;99.90
22974;DHT22;11653;50.848;4.584;2023-03-12T13:52:29;13.30;99.90
22974;DHT22;11653;50.848;4.584;2023-03-12T13:57:43;13.50;99.90
22974;DHT22;11653;50.848;4.584;2023-03-12T14:00:29;13.40;99.90
22974;DHT22;11653;50.848;4.584;2023-03-12T14:03:13;13.70;99.90
22974;DHT22;11653;50.848;4.584;2023-03-12T14:17:18;13.90;99.90
22974;DHT22;11653;50.848;4.584;2023-03-12T14:19:51;13.80;99.90
22974;DHT22;11653;50.848;4.584;2023-03-12T14:22:21;13.60;99.90
22974;DHT22;11653;50.848;4.584;2023-03-12T14:24:53;13.60;99.90
22974;DHT22;11653;50.848;4.584;2023-03-12T14:27:24;13.70;99.90
22974;DHT22;11653;50.848;4.584;2023-03-12T14:32:43;13.60;99.90
22974;DHT22;11653;50.848;4.584;2023-03-12T14:40:22;13.50;99.90
22974;DHT22;11653;50.848;4.584;2023-03-12T14:42:49;13.50;99.90
22974;DHT22;11653;50.848;4.584;2023-03-12T14:45:20;13.40;99.90
22974;DHT22;11653;50.848;4.584;2023-03-12T14:47:52;13.40;99.90
22974;DHT22;11653;50.848;4.584;2023-03-12T14:53:29;13.30;99.90
22974;DHT22;11653;50.848;4.584;2023-03-12T14:58:50;13.60;99.90
22974;DHT22;11653;50.848;4.584;2023-03-12T15:01:25;13.70;99.90
22974;DHT22;11653;50.848;4.584;2023-03-12T15:04:06;13.50;99.90
22974;DHT22;11653;50.848;4.584;2023-03-12T15:06:51;13.50;99.90
22974;DHT22;11653;50.848;4.584;2023-03-12T15:09:28;13.50;99.90
22974;DHT22;11653;50.848;4.584;2023-03-12T15:12:02;13.60;99.90
22974;DHT22;11653;50.848;4.584;2023-03-12T15:14:32;13.70;99.90
22974;DHT22;11653;50.848;4.584;2023-03-12T15:16:58;13.70;99.90
22974;DHT22;11653;50.848;4.584;2023-03-12T15:19:43;13.60;99.90
22974;DHT22;11653;50.848;4.584;2023-03-12T15:22:20;13.60;99.90
22974;DHT22;11653;50.848;4.584;2023-03-12T15:24:47;13.40;99.90
22974;DHT22;11653;50.848;4.584;2023-03-12T15:27:20;13.30;99.90
22974;DHT22;11653;50.848;4.584;2023-03-12T15:29:50;13.20;99.90
22974;DHT22;11653;50.848;4.584;2023-03-12T15:32:20;13.20;99.90
22974;DHT22;11653;50.848;4.584;2023-03-12T15:34:49;13.20;99.90
22974;DHT22;11653;50.848;4.584;2023-03-12T15:37:29;13.20;99.90
22974;DHT22;11653;50.848;4.584;2023-03-12T15:40:06;13.20;99.90
22974;DHT22;11653;50.848;4.584;2023-03-12T15:42:42;13.30;99.90
22974;DHT22;11653;50.848;4.584;2023-03-12T15:45:22;13.20;99.90
22974;DHT22;11653;50.848;4.584;2023-03-12T15:47:50;13.30;99.90
22974;DHT22;11653;50.848;4.584;2023-03-12T15:50:30;13.20;99.90
22974;DHT22;11653;50.848;4.584;2023-03-12T15:55:34;13.20;99.90
22974;DHT22;11653;50.848;4.584;2023-03-12T15:58:00;13.20;99.90
22974;DHT22;11653;50.848;4.584;2023-03-12T16:00:40;13.30;99.90
22974;DHT22;11653;50.848;4.584;2023-03-12T16:03:15;13.30;99.90
22974;DHT22;11653;50.848;4.584;2023-03-12T16:05:41;13.30;99.90
22974;DHT22;11653;50.848;4.584;2023-03-12T16:08:17;13.30;99.90
22974;DHT22;11653;50.848;4.584;2023-03-12T16:10:46;13.20;99.90
22974;DHT22;11653;50.848;4.584;2023-03-12T16:13:24;13.20;99.90
22974;DHT22;11653;50.848;4.584;2023-03-12T16:15:53;13.10;99.90
22974;DHT22;11653;50.848;4.584;2023-03-12T16:18:20;13.20;99.90
22974;DHT22;11653;50.848;4.584;2023-03-12T16:20:47;13.30;99.90
22974;DHT22;11653;50.848;4.584;2023-03-12T16:23:14;13.30;99.90
22974;DHT22;11653;50.848;4.584;2023-03-12T16:25:45;13.40;99.90
22974;DHT22;11653;50.848;4.584;2023-03-12T16:28:14;13.40;99.90
22974;DHT22;11653;50.848;4.584;2023-03-12T16:30:41;13.40;99.90
22974;DHT22;11653;50.848;4.584;2023-03-12T16:33:07;13.30;99.90
22974;DHT22;11653;50.848;4.584;2023-03-12T16:35:33;13.30;99.90
22974;DHT22;11653;50.848;4.584;2023-03-12T16:38:00;13.20;99.90
22974;DHT22;11653;50.848;4.584;2023-03-12T16:40:28;13.30;99.90
22974;DHT22;11653;50.848;4.584;2023-03-12T16:42:54;13.30;99.90
22974;DHT22;11653;50.848;4.584;2023-03-12T16:45:21;13.20;99.90
22974;DHT22;11653;50.848;4.584;2023-03-12T16:47:51;13.20;99.90
22974;DHT22;11653;50.848;4.584;2023-03-12T16:50:20;13.20;99.90
22974;DHT22;11653;50.848;4.584;2023-03-12T16:52:47;13.20;99.90
22974;DHT22;11653;50.848;4.584;2023-03-12T16:55:15;13.20;99.90
22974;DHT22;11653;50.848;4.584;2023-03-12T16:57:46;13.10;99.90
22974;DHT22;11653;50.848;4.584;2023-03-12T17:00:23;12.90;99.90
22974;DHT22;11653;50.848;4.584;2023-03-12T17:02:50;12.90;99.90
22974;DHT22;11653;50.848;4.584;2023-03-12T17:05:19;12.90;99.90
22974;DHT22;11653;50.848;4.584;2023-03-12T17:07:45;12.90;99.90
22974;DHT22;11653;50.848;4.584;2023-03-12T17:10:13;12.90;99.90
22974;DHT22;11653;50.848;4.584;2023-03-12T17:12:40;12.80;99.90
22974;DHT22;11653;50.848;4.584;2023-03-12T17:15:16;12.80;99.90
22974;DHT22;11653;50.848;4.584;2023-03-12T17:17:43;12.80;99.90
22974;DHT22;11653;50.848;4.584;2023-03-12T17:20:10;12.80;99.90
22974;DHT22;11653;50.848;4.584;2023-03-12T17:22:38;12.90;99.90
22974;DHT22;11653;50.848;4.584;2023-03-12T17:25:04;12.90;99.90
22974;DHT22;11653;50.848;4.584;2023-03-12T17:27:30;12.90;99.90
22974;DHT22;11653;50.848;4.584;2023-03-12T17:29:56;12.90;99.90
22974;DHT22;11653;50.848;4.584;2023-03-12T17:32:21;12.80;99.90
22974;DHT22;11653;50.848;4.584;2023-03-12T17:34:53;12.80;99.90
22974;DHT22;11653;50.848;4.584;2023-03-12T17:37:19;12.90;99.90
22974;DHT22;11653;50.848;4.584;2023-03-12T17:39:45;13.00;99.90
22974;DHT22;11653;50.848;4.584;2023-03-12T17:42:10;13.00;99.90
22974;DHT22;11653;50.848;4.584;2023-03-12T17:44:36;13.00;99.90
22974;DHT22;11653;50.848;4.584;2023-03-12T17:47:03;13.10;99.90
22974;DHT22;11653;50.848;4.584;2023-03-12T17:49:29;13.10;99.90
22974;DHT22;11653;50.848;4.584;2023-03-12T17:51:54;13.10;99.90